createdAt,value
2022-07-27T00:00:00.213Z,4.68
2022-07-27T00:06:45.934Z,4.65
2022-07-27T00:13:34.805Z,4.50
2022-07-27T00:20:22.987Z,4.47
2022-07-27T00:27:13.474Z,4.65
2022-07-27T00:34:01.677Z,4.78
2022-07-27T00:40:47.286Z,4.32
2022-07-27T00:54:22.317Z,4.33
2022-07-27T01:01:08.625Z,4.35
2022-07-27T01:07:54.754Z,4.20
2022-07-27T01:14:43.720Z,4.40
2022-07-27T01:21:31.790Z,4.38
2022-07-27T01:28:22.387Z,4.10
2022-07-27T01:35:08.996Z,4.43
2022-07-27T01:41:55.015Z,4.57
2022-07-27T01:48:44.080Z,3.90
2022-07-27T01:55:36.979Z,4.07
2022-07-27T02:02:24.737Z,4.28
2022-07-27T02:09:13.051Z,4.40
2022-07-27T02:15:59.646Z,3.95
2022-07-27T02:22:45.602Z,4.13
2022-07-27T02:36:19.017Z,4.30
2022-07-27T02:43:04.520Z,4.20
2022-07-27T03:03:41.965Z,4.03
2022-07-27T03:10:27.572Z,4.45
2022-07-27T03:17:13.057Z,4.10
2022-07-27T03:24:01.194Z,4.63
2022-07-27T03:30:46.704Z,4.38
2022-07-27T03:37:32.222Z,4.28
2022-07-27T03:44:20.368Z,4.32
2022-07-27T03:51:05.885Z,4.40
2022-07-27T03:57:52.522Z,4.10
2022-07-27T04:04:40.744Z,4.10
2022-07-27T04:11:26.261Z,4.35
2022-07-27T04:18:15.127Z,4.50
2022-07-27T04:25:03.311Z,4.40
2022-07-27T04:31:48.832Z,4.63
2022-07-27T04:38:34.757Z,4.50
2022-07-27T04:52:08.616Z,4.90
2022-07-27T04:58:54.101Z,4.72
2022-07-27T05:05:49.603Z,4.80
2022-07-27T05:12:35.912Z,5.05
2022-07-27T05:19:22.372Z,4.95
2022-07-27T05:26:28.339Z,5.00
2022-07-27T05:33:14.093Z,4.60
2022-07-27T05:39:59.608Z,4.95
2022-07-27T05:46:48.298Z,4.80
2022-07-27T05:53:33.742Z,4.40
2022-07-27T06:00:20.172Z,4.95
2022-07-27T06:07:21.120Z,4.75
2022-07-27T06:14:06.960Z,4.60
2022-07-27T06:27:40.719Z,5.00
2022-07-27T06:34:26.205Z,4.85
2022-07-27T06:41:11.694Z,4.82
2022-07-27T06:47:59.816Z,5.18
2022-07-27T06:54:45.575Z,5.43
2022-07-27T07:08:19.320Z,4.60
2022-07-27T07:15:04.887Z,4.65
2022-07-27T07:21:51.752Z,4.90
2022-07-27T07:28:39.862Z,4.43
2022-07-27T07:35:25.337Z,4.28
2022-07-27T07:42:11.203Z,4.60
2022-07-27T07:48:59.417Z,4.57
2022-07-27T07:55:45.080Z,4.95
2022-07-27T08:09:21.958Z,4.90
2022-07-27T08:16:08.201Z,4.50
2022-07-27T08:22:53.958Z,4.60
2022-07-27T08:36:28.593Z,4.82
2022-07-27T08:43:18.921Z,4.53
2022-07-27T08:50:27.280Z,4.73
2022-07-27T08:57:13.763Z,4.85
2022-07-27T09:03:59.303Z,4.80
2022-07-27T09:10:48.445Z,5.40
2022-07-27T09:17:50.384Z,4.80
2022-07-27T09:24:47.008Z,4.90
2022-07-27T09:31:37.728Z,5.05
2022-07-27T09:38:24.786Z,5.05
2022-07-27T09:45:34.161Z,5.10
2022-07-27T09:52:31.191Z,5.03
2022-07-27T09:59:22.251Z,4.72
2022-07-27T10:06:09.124Z,5.07
2022-07-27T10:12:57.353Z,5.10
2022-07-27T10:19:50.602Z,4.95
2022-07-27T10:26:38.836Z,4.95
2022-07-27T10:33:47.846Z,5.18
2022-07-27T10:40:39.421Z,5.00
2022-07-27T10:47:35.305Z,4.75
2022-07-27T11:01:17.114Z,4.65
2022-07-27T11:15:13.679Z,4.55
2022-07-27T11:22:04.541Z,4.70
2022-07-27T11:28:50.669Z,4.00
2022-07-27T11:35:39.485Z,4.38
2022-07-27T11:42:25.348Z,4.03
2022-07-27T11:49:14.241Z,4.10
2022-07-27T11:56:02.452Z,4.60
2022-07-27T12:02:52.500Z,4.75
2022-07-27T12:09:40.344Z,4.13
2022-07-27T12:16:28.616Z,4.35
2022-07-27T12:23:14.192Z,4.03
2022-07-27T12:30:12.945Z,3.95
2022-07-27T12:37:02.407Z,4.47
2022-07-27T12:43:47.888Z,4.85
2022-07-27T12:50:33.330Z,4.00
2022-07-27T12:57:53.480Z,3.90
2022-07-27T13:04:27.075Z,4.45
2022-07-27T13:11:13.917Z,4.68
2022-07-27T13:18:02.161Z,4.07
2022-07-27T13:24:47.684Z,4.35
2022-07-27T13:31:34.313Z,4.55
2022-07-27T13:38:22.421Z,3.83
2022-07-27T13:45:11.486Z,3.50
2022-07-27T13:51:57.655Z,4.18
2022-07-27T13:58:46.021Z,3.80
2022-07-27T14:05:31.665Z,4.40
2022-07-27T14:12:18.421Z,3.70
2022-07-27T14:19:12.239Z,3.80
2022-07-27T14:26:00.538Z,4.00
2022-07-27T14:32:46.285Z,4.00
2022-07-27T14:39:34.429Z,4.10
2022-07-27T14:46:19.964Z,3.85
2022-07-27T14:53:05.655Z,3.83
2022-07-27T14:59:54.153Z,4.00
2022-07-27T15:06:39.923Z,3.78
2022-07-27T15:13:25.648Z,4.15
2022-07-27T15:20:14.945Z,4.10
2022-07-27T15:27:00.520Z,3.50
2022-07-27T15:33:46.096Z,3.42
2022-07-27T15:40:41.748Z,4.03
2022-07-27T15:47:27.472Z,4.15
2022-07-27T15:54:14.203Z,3.55
2022-07-27T16:01:02.597Z,4.25
2022-07-27T16:07:48.122Z,3.75
2022-07-27T16:14:33.610Z,4.18
2022-07-27T16:21:22.912Z,3.65
2022-07-27T16:28:09.284Z,3.88
2022-07-27T16:34:54.913Z,5.18
2022-07-27T16:41:43.656Z,3.88
2022-07-27T16:48:29.141Z,4.00
2022-07-27T16:55:16.036Z,3.65
2022-07-27T17:02:05.209Z,3.65
2022-07-27T17:08:50.721Z,3.78
2022-07-27T17:15:36.814Z,4.32
2022-07-27T17:22:24.978Z,4.25
2022-07-27T17:29:10.694Z,4.13
2022-07-27T17:35:56.426Z,3.40
2022-07-27T17:42:44.843Z,4.32
2022-07-27T17:49:31.616Z,4.63
2022-07-27T17:56:17.171Z,3.90
2022-07-27T18:03:05.533Z,3.60
2022-07-27T18:09:54.521Z,3.65
2022-07-27T18:16:40.990Z,4.03
2022-07-27T18:23:30.196Z,3.80
2022-07-27T18:30:16.372Z,4.03
2022-07-27T18:37:02.051Z,3.80
2022-07-27T18:43:53.681Z,3.60
2022-07-27T18:50:40.141Z,4.00
2022-07-27T18:57:25.850Z,4.18
2022-07-27T19:04:14.335Z,3.67
2022-07-27T19:11:02.423Z,4.00
2022-07-27T19:17:48.096Z,4.35
2022-07-27T19:24:36.296Z,3.65
2022-07-27T19:31:22.874Z,4.20
2022-07-27T19:38:09.121Z,3.50
2022-07-27T19:44:57.877Z,3.85
2022-07-27T19:51:43.476Z,3.90
2022-07-27T19:58:29.734Z,4.10
2022-07-27T20:05:18.157Z,3.95
2022-07-27T20:12:03.842Z,4.32
2022-07-27T20:18:49.487Z,3.78
2022-07-27T20:25:38.105Z,3.70
2022-07-27T20:32:23.627Z,3.65
2022-07-27T20:39:12.836Z,3.90
2022-07-27T20:46:05.072Z,4.18
2022-07-27T20:52:50.738Z,3.78
2022-07-27T20:59:36.392Z,4.32
2022-07-27T21:06:24.501Z,3.90
2022-07-27T21:13:09.952Z,4.00
2022-07-27T21:19:56.092Z,4.63
2022-07-27T21:26:44.848Z,4.18
2022-07-27T21:33:33.732Z,3.90
2022-07-27T21:40:22.282Z,4.47
2022-07-27T21:47:14.019Z,3.80
2022-07-27T21:54:00.132Z,4.25
2022-07-27T22:00:46.515Z,3.85
2022-07-27T22:14:20.146Z,3.80
2022-07-27T22:27:54.326Z,4.38
2022-07-27T22:34:40.487Z,4.28
2022-07-27T22:41:25.980Z,4.57
2022-07-27T22:48:14.108Z,4.47
2022-07-27T22:54:59.557Z,4.35
2022-07-27T23:01:47.455Z,4.55
2022-07-27T23:08:36.177Z,4.05
2022-07-27T23:15:21.787Z,3.80
2022-07-27T23:22:11.459Z,3.92
2022-07-27T23:28:59.991Z,3.70
2022-07-27T23:35:45.533Z,3.97
2022-07-27T23:42:31.045Z,4.15
2022-07-27T23:49:19.266Z,4.05
2022-07-27T23:56:04.901Z,3.95
